Dixie, WV (25059)

8:16 AM EST on January 26, 2015 (GMT -0500)
. | Change Station
CLOSE
Current Station
Personal Weather Station
Location: Gauley Bridge, WV
Elevation: 804 ft
Nearby Weather Stations

Elev 804 ft 38.17 °N, 81.19 °W | Updated 1 minute ago

Overcast
Overcast
38.3 °F
Feels Like 38 °F
N
0.0
Wind Variable Wind from WSW
Gusts 0.0 mph

Today
High -- | Low -- °F
--% Chance of Precip.
Yesterday
High -- | Low -- °F
Precip. -- in
7:34 AM 5:40 PM
Waxing Crescent, 43% visible
Pressure 29.65 in
Visibility 0.8 miles
Clouds Scattered Clouds 300 ft
Overcast 2500 ft
Windchill 38 °F
Dew Point 36 °F
Humidity 90%
Rainfall 0.08 in
Snow Depth Not available.
UV 0 out of 12
Pollen .10 out of 12
Air Quality Not available.
Flu Activity Not available.
METAR KCRW 261254Z 00000KT 3/4SM BR SCT003 OVC025 04/04 A2963 RMK AO2 SLP038 SCT V BKN VLY FG T00440039 RVRNO

More Conditions Fewer Conditions

Pressure 29.65 in
Visibility 0.8 miles
Clouds Scattered Clouds 300 ft
Overcast 2500 ft
Windchill 38 °F
Dew Point 36 °F
Humidity 90%
Rainfall 0.08 in
Snow Depth Not available.
UV 0 out of 12
Pollen .10 out of 12
Air Quality Not available.
Flu Activity Not available.
METAR KCRW 261254Z 00000KT 3/4SM BR SCT003 OVC025 04/04 A2963 RMK AO2 SLP038 SCT V BKN VLY FG T00440039 RVRNO

More Conditions Fewer Conditions

10-Day Weather Forecast

Almanac

Astronomy

Jan. 26, 2015 Rise Set
Actual Time
Civil Twilight
Nautical Twilight
Astronomical Twilight
Moon
Length of Visible Light
Length of Day
Tomorrow will be .
, % of the Moon is Illuminated

Today's Extremes

State Highs State Lows

Community

WunderPhotos

Upload Photos

1,790,192 photos uploaded!

WunderBlogs® & News

Nearby

Air Quality

  Air Quality AQ Index Pollutant
Not available.

Snow Depth

Station Depth Elevation

Earthquake Activity

City Distance Mag. Time & Date
Minimum magnitude displayed is 2.5.

Coastal Water Temperatures

Place Temperature

Nearby Weather Stations